createdAt,value
2023-01-22T00:01:32.124Z,2.60
2023-01-22T00:04:00.809Z,2.60
2023-01-22T00:06:29.337Z,2.60
2023-01-22T00:08:57.633Z,2.60
2023-01-22T00:11:26.024Z,2.60
2023-01-22T00:13:54.342Z,2.60
2023-01-22T00:16:24.178Z,2.60
2023-01-22T00:18:52.517Z,2.60
2023-01-22T00:21:20.920Z,2.60
2023-01-22T00:23:49.175Z,2.60
2023-01-22T00:26:19.099Z,2.70
2023-01-22T00:28:47.905Z,2.60
2023-01-22T00:31:17.573Z,2.70
2023-01-22T00:33:48.484Z,2.70
2023-01-22T00:36:19.581Z,2.70
2023-01-22T00:38:49.957Z,2.70
2023-01-22T00:41:20.084Z,2.70
2023-01-22T00:43:50.111Z,2.70
2023-01-22T00:46:20.224Z,2.70
2023-01-22T00:48:51.197Z,2.70
2023-01-22T00:51:20.011Z,2.70
2023-01-22T00:53:48.806Z,2.70
2023-01-22T00:56:18.168Z,2.70
2023-01-22T00:58:46.762Z,2.70
2023-01-22T01:01:16.661Z,2.80
2023-01-22T01:03:45.416Z,2.70
2023-01-22T01:06:18.410Z,2.70
2023-01-22T01:08:48.025Z,2.80
2023-01-22T01:11:18.902Z,2.80
2023-01-22T01:13:47.336Z,2.80
2023-01-22T01:16:17.505Z,2.80
2023-01-22T01:18:47.646Z,2.70
2023-01-22T01:21:20.074Z,2.80
2023-01-22T01:23:49.883Z,2.80
2023-01-22T01:26:18.582Z,2.80
2023-01-22T01:28:47.822Z,2.80
2023-01-22T01:31:18.085Z,2.80
2023-01-22T01:33:47.355Z,2.80
2023-01-22T01:36:35.368Z,2.80
2023-01-22T01:39:09.962Z,2.80
2023-01-22T01:41:38.433Z,2.80
2023-01-22T01:44:12.230Z,2.80
2023-01-22T01:46:45.557Z,2.80
2023-01-22T01:49:21.525Z,2.80
2023-01-22T01:51:54.925Z,2.80
2023-01-22T01:54:23.583Z,2.90
2023-01-22T01:56:56.611Z,2.80
2023-01-22T01:59:25.536Z,2.90
2023-01-22T02:01:56.242Z,2.80
2023-01-22T02:04:25.182Z,2.80
2023-01-22T02:06:56.939Z,2.80
2023-01-22T02:09:25.419Z,2.90
2023-01-22T02:11:54.943Z,2.80
2023-01-22T02:14:27.289Z,2.90
2023-01-22T02:17:03.454Z,2.90
2023-01-22T02:19:31.828Z,2.90
2023-01-22T02:22:01.843Z,2.90
2023-01-22T02:24:33.580Z,2.90
2023-01-22T02:27:01.924Z,2.90
2023-01-22T02:29:30.804Z,2.90
2023-01-22T02:31:59.193Z,2.90
2023-01-22T02:34:27.599Z,3.00
2023-01-22T02:36:56.421Z,3.00
2023-01-22T02:39:26.096Z,3.00
2023-01-22T02:41:54.863Z,3.00
2023-01-22T02:44:23.383Z,3.00
2023-01-22T02:46:51.917Z,3.00
2023-01-22T02:49:20.378Z,3.00
2023-01-22T02:51:48.901Z,3.00
2023-01-22T02:54:17.354Z,3.00
2023-01-22T02:56:47.095Z,3.00
2023-01-22T02:59:15.607Z,3.00
2023-01-22T03:01:44.264Z,3.00
2023-01-22T03:04:12.927Z,3.00
2023-01-22T03:06:44.120Z,3.00
2023-01-22T03:09:14.253Z,3.00
2023-01-22T03:11:44.663Z,3.00
2023-01-22T03:14:36.055Z,3.00
2023-01-22T03:17:22.373Z,3.00
2023-01-22T03:20:10.194Z,3.00
2023-01-22T03:22:38.703Z,3.00
2023-01-22T03:25:07.764Z,3.00
2023-01-22T03:27:38.108Z,3.00
2023-01-22T03:30:08.640Z,2.90
2023-01-22T03:32:37.102Z,2.90
2023-01-22T03:35:10.972Z,2.90
2023-01-22T03:37:53.552Z,2.90
2023-01-22T03:40:22.162Z,2.90
2023-01-22T03:42:50.648Z,2.90
2023-01-22T03:45:20.407Z,2.80
2023-01-22T03:47:51.496Z,2.80
2023-01-22T03:50:25.141Z,2.80
2023-01-22T03:52:53.987Z,2.80
2023-01-22T03:55:22.874Z,2.70
2023-01-22T03:57:51.293Z,2.70
2023-01-22T04:00:23.204Z,2.70
2023-01-22T04:02:53.681Z,2.60
2023-01-22T04:05:26.925Z,2.60
2023-01-22T04:07:56.325Z,2.50
2023-01-22T04:10:28.324Z,2.50
2023-01-22T04:12:56.724Z,2.50
2023-01-22T04:15:26.405Z,2.40
2023-01-22T04:17:56.996Z,2.40
2023-01-22T04:20:45.693Z,2.40
2023-01-22T04:23:23.923Z,2.30
2023-01-22T04:25:54.206Z,2.30
2023-01-22T04:28:23.157Z,2.30
2023-01-22T04:30:57.257Z,2.30
2023-01-22T04:33:42.881Z,2.20
2023-01-22T04:36:19.722Z,2.30
2023-01-22T04:38:48.196Z,2.20
2023-01-22T04:41:16.567Z,2.20
2023-01-22T04:43:45.216Z,2.20
2023-01-22T04:46:15.662Z,2.20
2023-01-22T04:48:44.235Z,2.20
2023-01-22T04:51:12.777Z,2.20
2023-01-22T04:53:41.193Z,2.10
2023-01-22T04:56:10.613Z,2.10
2023-01-22T04:58:40.177Z,2.10
2023-01-22T05:01:08.652Z,2.10
2023-01-22T05:03:38.522Z,2.10
2023-01-22T05:06:09.733Z,2.10
2023-01-22T05:08:40.534Z,2.10
2023-01-22T05:11:10.928Z,2.10
2023-01-22T05:13:46.860Z,2.10
2023-01-22T05:16:15.256Z,2.10
2023-01-22T05:18:45.006Z,2.10
2023-01-22T05:21:13.496Z,2.00
2023-01-22T05:23:43.859Z,2.00
2023-01-22T05:26:12.749Z,2.00
2023-01-22T05:28:53.761Z,2.00
2023-01-22T05:31:44.949Z,1.90
2023-01-22T05:34:34.895Z,2.00
2023-01-22T05:37:03.702Z,1.90
2023-01-22T05:39:33.952Z,1.90
2023-01-22T05:42:05.280Z,1.90
2023-01-22T05:44:34.847Z,1.90
2023-01-22T05:47:03.545Z,1.90
2023-01-22T05:49:47.951Z,1.90
2023-01-22T05:52:17.328Z,1.90
2023-01-22T05:54:46.715Z,1.90
2023-01-22T05:57:15.124Z,1.90
2023-01-22T05:59:43.547Z,1.90
2023-01-22T06:02:12.029Z,1.90
2023-01-22T06:04:45.057Z,1.90
2023-01-22T06:07:27.838Z,1.90
2023-01-22T06:09:57.002Z,1.90
2023-01-22T06:12:25.598Z,1.90
2023-01-22T06:14:54.386Z,1.80
2023-01-22T06:17:23.249Z,1.90
2023-01-22T06:19:56.995Z,1.90
2023-01-22T06:22:26.706Z,1.90
2023-01-22T06:24:58.640Z,1.90
2023-01-22T06:27:38.820Z,1.90
2023-01-22T06:30:08.189Z,1.90
2023-01-22T06:32:36.636Z,1.90
2023-01-22T06:35:05.293Z,1.90
2023-01-22T06:37:36.136Z,1.90
2023-01-22T06:40:04.809Z,1.90
2023-01-22T06:42:42.357Z,2.00
2023-01-22T06:45:11.311Z,1.90
2023-01-22T06:47:45.474Z,2.00
2023-01-22T06:50:15.321Z,2.00
2023-01-22T06:52:45.087Z,2.00
2023-01-22T06:55:13.546Z,2.00
2023-01-22T06:57:42.034Z,2.00
2023-01-22T07:00:11.788Z,2.00
2023-01-22T07:02:41.425Z,2.00
2023-01-22T07:05:10.115Z,2.00
2023-01-22T07:07:38.460Z,2.00
2023-01-22T07:10:08.696Z,2.00
2023-01-22T07:12:37.486Z,2.10
2023-01-22T07:15:06.974Z,2.10
2023-01-22T07:17:37.125Z,2.10
2023-01-22T07:20:06.101Z,2.10
2023-01-22T07:22:34.384Z,2.10
2023-01-22T07:25:03.214Z,2.10
2023-01-22T07:27:34.981Z,2.10
2023-01-22T07:30:04.139Z,2.10
2023-01-22T07:32:32.506Z,2.10
2023-01-22T07:35:00.866Z,2.20
2023-01-22T07:37:29.303Z,2.20
2023-01-22T07:39:57.674Z,2.20
2023-01-22T07:42:26.062Z,2.30
2023-01-22T07:44:55.806Z,2.30
2023-01-22T07:47:24.395Z,2.30
2023-01-22T07:49:52.788Z,2.30
2023-01-22T07:52:21.195Z,2.40
2023-01-22T07:54:49.622Z,2.40
2023-01-22T07:57:18.781Z,2.50
2023-01-22T07:59:47.156Z,2.50
2023-01-22T08:02:17.145Z,2.50
2023-01-22T08:04:45.477Z,2.60
2023-01-22T08:07:18.106Z,2.60
2023-01-22T08:09:46.537Z,2.60
2023-01-22T08:12:14.928Z,2.60
2023-01-22T08:14:43.282Z,2.60
2023-01-22T08:17:11.926Z,2.60
2023-01-22T08:19:41.677Z,2.60
2023-01-22T08:22:10.167Z,2.60
2023-01-22T08:24:38.593Z,2.70
2023-01-22T08:27:07.036Z,2.70
2023-01-22T08:29:35.476Z,2.70
2023-01-22T08:32:03.984Z,2.70
2023-01-22T08:34:32.375Z,2.70
2023-01-22T08:37:02.024Z,2.80
2023-01-22T08:39:30.520Z,2.80
2023-01-22T08:41:59.002Z,2.80
2023-01-22T08:44:27.544Z,2.90
2023-01-22T08:46:55.912Z,2.90
2023-01-22T08:49:24.401Z,3.00
2023-01-22T08:51:52.815Z,3.00
2023-01-22T08:54:22.473Z,3.10
2023-01-22T08:56:50.949Z,3.20
2023-01-22T08:59:19.349Z,3.30
2023-01-22T09:01:47.755Z,3.30
2023-01-22T09:04:16.139Z,3.30
2023-01-22T09:06:44.637Z,3.40
2023-01-22T09:09:13.947Z,3.40
2023-01-22T09:11:44.593Z,3.40
2023-01-22T09:14:13.077Z,3.50
2023-01-22T09:16:41.595Z,3.60
2023-01-22T09:19:11.138Z,3.70
2023-01-22T09:21:39.597Z,3.80
2023-01-22T09:24:08.950Z,3.90
2023-01-22T09:26:38.134Z,4.10
2023-01-22T09:29:08.167Z,4.20
2023-01-22T09:31:38.206Z,4.40
2023-01-22T09:34:06.685Z,4.60
2023-01-22T09:36:35.575Z,4.70
2023-01-22T09:39:03.986Z,4.80
2023-01-22T09:41:35.626Z,5.00
2023-01-22T09:44:09.834Z,5.10
2023-01-22T09:46:42.454Z,5.20
2023-01-22T09:49:16.854Z,5.30
2023-01-22T09:51:48.294Z,5.30
2023-01-22T09:54:17.579Z,5.40
2023-01-22T09:56:50.045Z,5.40
2023-01-22T09:59:22.193Z,5.50
2023-01-22T10:01:56.062Z,5.60
2023-01-22T10:04:34.309Z,5.70
2023-01-22T10:07:06.551Z,5.80
2023-01-22T10:09:36.061Z,5.80
2023-01-22T10:12:13.931Z,5.80
2023-01-22T10:14:45.127Z,5.90
2023-01-22T10:17:20.876Z,6.00
2023-01-22T10:19:53.663Z,6.00
2023-01-22T10:22:23.616Z,6.00
2023-01-22T10:24:52.997Z,6.10
2023-01-22T10:27:23.798Z,6.20
2023-01-22T10:30:02.555Z,6.20
2023-01-22T10:32:32.647Z,6.30
2023-01-22T10:35:03.891Z,6.40
2023-01-22T10:37:32.563Z,6.40
2023-01-22T10:40:01.595Z,6.40
2023-01-22T10:42:31.070Z,6.40
2023-01-22T10:45:16.540Z,6.40
2023-01-22T10:47:44.869Z,6.40
2023-01-22T10:50:16.749Z,6.40
2023-01-22T10:52:49.795Z,6.40
2023-01-22T10:55:23.711Z,6.50
2023-01-22T10:57:56.604Z,6.50
2023-01-22T11:00:46.774Z,6.50
2023-01-22T11:03:22.648Z,6.50
2023-01-22T11:05:58.027Z,6.40
2023-01-22T11:08:30.992Z,6.40
2023-01-22T11:11:03.152Z,6.40
2023-01-22T11:13:39.913Z,6.40
2023-01-22T11:16:16.414Z,6.40
2023-01-22T11:18:49.334Z,6.30
2023-01-22T11:21:20.733Z,6.30
2023-01-22T11:23:54.584Z,6.20
2023-01-22T11:26:38.873Z,6.20
2023-01-22T11:29:18.206Z,6.10
2023-01-22T11:32:02.208Z,6.00
2023-01-22T11:34:50.694Z,6.00
2023-01-22T11:37:21.955Z,6.00
2023-01-22T11:40:01.593Z,5.90
2023-01-22T11:42:45.256Z,6.00
2023-01-22T11:45:32.142Z,5.90
2023-01-22T11:48:18.393Z,6.00
2023-01-22T11:50:53.569Z,6.00
2023-01-22T11:53:49.498Z,6.10
2023-01-22T11:56:41.266Z,6.20
2023-01-22T11:59:14.146Z,6.20
2023-01-22T12:01:55.515Z,6.20
2023-01-22T12:04:48.131Z,6.20
2023-01-22T12:08:01.057Z,6.20
2023-01-22T12:10:44.813Z,6.20
2023-01-22T12:13:29.003Z,6.30
2023-01-22T12:16:06.758Z,6.30
2023-01-22T12:19:06.553Z,6.30
2023-01-22T12:21:47.278Z,6.30
2023-01-22T12:24:23.072Z,6.20
2023-01-22T12:27:00.143Z,6.20
2023-01-22T12:29:32.136Z,6.20
2023-01-22T12:32:09.024Z,6.10
2023-01-22T12:34:48.025Z,6.10
2023-01-22T12:37:22.231Z,6.10
2023-01-22T12:40:03.149Z,6.00
2023-01-22T12:42:37.333Z,6.00
2023-01-22T12:45:19.513Z,5.90
2023-01-22T12:47:54.137Z,5.90
2023-01-22T12:50:24.215Z,5.90
2023-01-22T12:53:02.020Z,5.90
2023-01-22T12:55:35.004Z,5.90
2023-01-22T12:58:04.254Z,5.90
2023-01-22T13:00:35.934Z,5.80
2023-01-22T13:03:30.879Z,5.80
2023-01-22T13:06:01.573Z,5.80
2023-01-22T13:08:41.043Z,5.80
2023-01-22T13:11:11.629Z,5.80
2023-01-22T13:13:45.295Z,5.80
2023-01-22T13:16:23.892Z,5.80
2023-01-22T13:18:55.001Z,5.80
2023-01-22T13:21:29.920Z,5.80
2023-01-22T13:24:05.995Z,5.80
2023-01-22T13:26:37.177Z,5.80
2023-01-22T13:29:08.067Z,5.80
2023-01-22T13:31:36.477Z,5.80
2023-01-22T13:34:09.008Z,5.80
2023-01-22T13:36:40.066Z,5.80
2023-01-22T13:39:19.383Z,5.80
2023-01-22T13:41:51.708Z,5.80
2023-01-22T13:44:24.465Z,5.80
2023-01-22T13:46:53.759Z,5.80
2023-01-22T13:49:25.109Z,5.80
2023-01-22T13:51:53.902Z,5.80
2023-01-22T13:54:28.591Z,5.80
2023-01-22T13:56:57.003Z,5.80
2023-01-22T13:59:27.730Z,5.80
2023-01-22T14:01:56.289Z,5.80
2023-01-22T14:04:34.488Z,5.80
2023-01-22T14:07:02.928Z,5.80
2023-01-22T14:09:34.802Z,5.80
2023-01-22T14:12:15.355Z,5.80
2023-01-22T14:14:44.606Z,5.80
2023-01-22T14:17:25.172Z,5.80
2023-01-22T14:19:53.975Z,5.90
2023-01-22T14:22:23.632Z,5.90
2023-01-22T14:24:53.537Z,5.90
2023-01-22T14:27:22.575Z,5.80
2023-01-22T14:29:51.213Z,5.90
2023-01-22T14:32:19.662Z,5.90
2023-01-22T14:34:48.123Z,5.80
2023-01-22T14:37:17.324Z,5.80
2023-01-22T14:39:45.849Z,5.80
2023-01-22T14:42:15.559Z,5.80
2023-01-22T14:44:44.267Z,5.80
2023-01-22T14:47:12.626Z,5.80
2023-01-22T14:49:41.285Z,5.70
2023-01-22T14:52:09.663Z,5.70
2023-01-22T14:54:38.057Z,5.70
2023-01-22T14:57:06.445Z,5.70
2023-01-22T14:59:36.135Z,5.70
2023-01-22T15:02:04.580Z,5.70
2023-01-22T15:04:33.048Z,5.60
2023-01-22T15:07:01.445Z,5.70
2023-01-22T15:09:29.872Z,5.60
2023-01-22T15:11:58.313Z,5.70
2023-01-22T15:14:27.155Z,5.60
2023-01-22T15:16:57.101Z,5.60
2023-01-22T15:19:25.445Z,5.60
2023-01-22T15:21:53.799Z,5.70
2023-01-22T15:24:22.413Z,5.70
2023-01-22T15:26:50.831Z,5.60
2023-01-22T15:29:19.199Z,5.60
2023-01-22T15:31:47.748Z,5.60
2023-01-22T15:34:17.443Z,5.60
2023-01-22T15:36:45.967Z,5.60
2023-01-22T15:39:14.426Z,5.60
2023-01-22T15:41:43.345Z,5.60
2023-01-22T15:44:15.035Z,5.60
2023-01-22T15:46:44.586Z,5.50
2023-01-22T15:49:13.362Z,5.50
2023-01-22T15:51:43.425Z,5.50
2023-01-22T15:54:15.649Z,5.50
2023-01-22T15:56:44.450Z,5.50
2023-01-22T15:59:13.413Z,5.50
2023-01-22T16:01:42.079Z,5.50
2023-01-22T16:04:11.234Z,5.50
2023-01-22T16:06:39.806Z,5.50
2023-01-22T16:09:09.685Z,5.50
2023-01-22T16:11:38.352Z,5.60
2023-01-22T16:14:06.793Z,5.50
2023-01-22T16:16:37.962Z,5.60
2023-01-22T16:19:08.274Z,5.60
2023-01-22T16:21:37.337Z,5.60
2023-01-22T16:24:06.243Z,5.50
2023-01-22T16:26:36.853Z,5.50
2023-01-22T16:29:06.903Z,5.60
2023-01-22T16:31:37.012Z,5.60
2023-01-22T16:34:11.044Z,5.60
2023-01-22T16:36:40.027Z,5.60
2023-01-22T16:39:09.533Z,5.60
2023-01-22T16:41:39.391Z,5.60
2023-01-22T16:44:10.111Z,5.60
2023-01-22T16:46:40.117Z,5.60
2023-01-22T16:49:11.880Z,5.50
2023-01-22T16:51:41.927Z,5.50
2023-01-22T16:54:17.413Z,5.50
2023-01-22T16:56:47.102Z,5.40
2023-01-22T16:59:16.032Z,5.40
2023-01-22T17:01:45.303Z,5.40
2023-01-22T17:04:13.751Z,5.30
2023-01-22T17:06:44.659Z,5.30
2023-01-22T17:09:15.517Z,5.30
2023-01-22T17:11:49.263Z,5.30
2023-01-22T17:14:22.625Z,5.20
2023-01-22T17:16:51.570Z,5.20
2023-01-22T17:19:20.377Z,5.10
2023-01-22T17:21:51.803Z,5.10
2023-01-22T17:24:22.233Z,5.10
2023-01-22T17:26:51.882Z,5.00
2023-01-22T17:29:22.325Z,5.00
2023-01-22T17:31:51.023Z,5.00
2023-01-22T17:34:19.626Z,4.90
2023-01-22T17:36:50.737Z,4.90
2023-01-22T17:39:20.032Z,4.90
2023-01-22T17:41:48.470Z,4.80
2023-01-22T17:44:17.289Z,4.80
2023-01-22T17:46:49.196Z,4.70
2023-01-22T17:49:17.736Z,4.70
2023-01-22T17:51:46.117Z,4.60
2023-01-22T17:54:14.560Z,4.60
2023-01-22T17:56:45.594Z,4.60
2023-01-22T17:59:14.434Z,4.60
2023-01-22T18:01:43.048Z,4.50
2023-01-22T18:04:15.017Z,4.50
2023-01-22T18:06:44.726Z,4.50
2023-01-22T18:09:13.925Z,4.40
2023-01-22T18:11:43.331Z,4.50
2023-01-22T18:14:15.833Z,4.40
2023-01-22T18:16:44.758Z,4.40
2023-01-22T18:19:14.513Z,4.40
2023-01-22T18:21:43.247Z,4.40
2023-01-22T18:24:13.627Z,4.40
2023-01-22T18:26:43.253Z,4.40
2023-01-22T18:29:12.542Z,4.40
2023-01-22T18:31:42.108Z,4.40
2023-01-22T18:34:14.560Z,4.40
2023-01-22T18:36:44.322Z,4.30
2023-01-22T18:39:15.197Z,4.30
2023-01-22T18:41:45.113Z,4.30
2023-01-22T18:44:16.296Z,4.30
2023-01-22T18:46:48.060Z,4.30
2023-01-22T18:49:18.600Z,4.30
2023-01-22T18:51:48.672Z,4.30
2023-01-22T18:54:17.764Z,4.30
2023-01-22T18:56:46.945Z,4.30
2023-01-22T18:59:15.412Z,4.30
2023-01-22T19:01:50.561Z,4.30
2023-01-22T19:04:21.904Z,4.30
2023-01-22T19:06:57.242Z,4.30
2023-01-22T19:09:27.243Z,4.30
2023-01-22T19:11:56.370Z,4.30
2023-01-22T19:14:24.769Z,4.40
2023-01-22T19:16:54.387Z,4.30
2023-01-22T19:19:23.726Z,4.40
2023-01-22T19:21:56.192Z,4.40
2023-01-22T19:24:27.947Z,4.40
2023-01-22T19:26:57.325Z,4.40
2023-01-22T19:29:26.612Z,4.40
2023-01-22T19:31:57.178Z,4.40
2023-01-22T19:34:28.624Z,4.30
2023-01-22T19:37:01.311Z,4.30
2023-01-22T19:39:30.333Z,4.30
2023-01-22T19:42:02.038Z,4.30
2023-01-22T19:44:31.017Z,4.30
2023-01-22T19:47:00.447Z,4.20
2023-01-22T19:49:29.364Z,4.20
2023-01-22T19:51:59.473Z,4.20
2023-01-22T19:54:28.134Z,4.20
2023-01-22T19:56:56.776Z,4.20
2023-01-22T19:59:25.631Z,4.10
2023-01-22T20:01:54.279Z,4.10
2023-01-22T20:04:25.603Z,4.10
2023-01-22T20:06:58.959Z,4.10
2023-01-22T20:09:27.738Z,4.00
2023-01-22T20:11:58.328Z,4.00
2023-01-22T20:14:30.870Z,3.90
2023-01-22T20:17:00.403Z,3.90
2023-01-22T20:19:30.405Z,3.80
2023-01-22T20:22:03.022Z,3.80
2023-01-22T20:24:31.463Z,3.70
2023-01-22T20:27:01.435Z,3.60
2023-01-22T20:29:29.930Z,3.60
2023-01-22T20:31:59.404Z,3.60
2023-01-22T20:34:28.003Z,3.50
2023-01-22T20:36:56.462Z,3.50
2023-01-22T20:39:26.233Z,3.50
2023-01-22T20:41:55.943Z,3.50
2023-01-22T20:44:24.686Z,3.40
2023-01-22T20:46:53.093Z,3.40
2023-01-22T20:49:21.507Z,3.40
2023-01-22T20:51:49.943Z,3.40
2023-01-22T20:54:19.532Z,3.30
2023-01-22T20:56:50.379Z,3.30
2023-01-22T20:59:19.385Z,3.30
2023-01-22T21:01:48.093Z,3.20
2023-01-22T21:04:18.103Z,3.20
2023-01-22T21:06:46.436Z,3.20
2023-01-22T21:09:14.777Z,3.10
2023-01-22T21:11:44.118Z,3.10
2023-01-22T21:14:17.940Z,3.10
2023-01-22T21:16:46.537Z,3.00
2023-01-22T21:19:18.017Z,3.00
2023-01-22T21:21:46.891Z,3.00
2023-01-22T21:24:15.505Z,2.90
2023-01-22T21:26:44.028Z,2.90
2023-01-22T21:29:16.663Z,2.90
2023-01-22T21:31:49.124Z,2.80
2023-01-22T21:34:18.885Z,2.80
2023-01-22T21:36:49.948Z,2.80
2023-01-22T21:39:20.462Z,2.70
2023-01-22T21:41:48.930Z,2.70
2023-01-22T21:44:38.356Z,2.70
2023-01-22T21:47:06.943Z,2.70
2023-01-22T21:49:36.308Z,2.60
2023-01-22T21:52:09.254Z,2.60
2023-01-22T21:54:39.699Z,2.60
2023-01-22T21:57:09.475Z,2.50
2023-01-22T21:59:39.307Z,2.50
2023-01-22T22:02:10.217Z,2.50
2023-01-22T22:04:38.745Z,2.50
2023-01-22T22:07:07.263Z,2.40
2023-01-22T22:09:35.726Z,2.40
2023-01-22T22:12:04.583Z,2.30
2023-01-22T22:14:33.128Z,2.30
2023-01-22T22:17:03.195Z,2.30
2023-01-22T22:19:32.026Z,2.20
2023-01-22T22:22:00.529Z,2.20
2023-01-22T22:24:29.047Z,2.10
2023-01-22T22:26:57.497Z,2.10
2023-01-22T22:29:25.902Z,2.00
2023-01-22T22:31:54.347Z,2.00
2023-01-22T22:34:24.084Z,1.90
2023-01-22T22:36:52.506Z,1.80
2023-01-22T22:39:20.837Z,1.80
2023-01-22T22:41:49.168Z,1.80
2023-01-22T22:44:17.936Z,1.80
2023-01-22T22:46:46.284Z,1.80
2023-01-22T22:49:14.963Z,1.80
2023-01-22T22:51:45.369Z,1.80
2023-01-22T22:54:16.804Z,1.80
2023-01-22T22:56:46.003Z,1.90
2023-01-22T22:59:15.267Z,1.90
2023-01-22T23:01:43.995Z,1.90
2023-01-22T23:04:13.828Z,2.00
2023-01-22T23:06:46.264Z,2.00
2023-01-22T23:09:16.861Z,2.10
2023-01-22T23:11:45.586Z,2.10
2023-01-22T23:14:14.412Z,2.10
2023-01-22T23:16:44.468Z,2.10
2023-01-22T23:19:16.006Z,2.10
2023-01-22T23:21:46.578Z,2.10
2023-01-22T23:24:15.895Z,2.10
2023-01-22T23:26:45.845Z,2.10
2023-01-22T23:29:17.423Z,2.10
2023-01-22T23:31:46.009Z,2.00
2023-01-22T23:34:16.783Z,2.00
2023-01-22T23:36:48.212Z,2.00
2023-01-22T23:39:18.304Z,2.00
2023-01-22T23:41:46.789Z,1.90
2023-01-22T23:44:15.194Z,1.90
2023-01-22T23:46:43.784Z,1.90
2023-01-22T23:49:12.263Z,1.90
2023-01-22T23:51:42.289Z,1.90
2023-01-22T23:54:12.260Z,1.90
2023-01-22T23:56:40.696Z,1.90
2023-01-22T23:59:10.384Z,1.90
